sensor_id;sensor_type;location;lat;lon;timestamp;P1;durP1;ratioP1;P2;durP2;ratioP2
65387;SDS011;51992;53.528;49.474;2023-06-10T00:02:11;8.88;;;3.38;;
65387;SDS011;51992;53.528;49.474;2023-06-10T00:04:37;6.45;;;3.45;;
65387;SDS011;51992;53.528;49.474;2023-06-10T00:07:03;5.10;;;3.17;;
65387;SDS011;51992;53.528;49.474;2023-06-10T00:09:29;7.78;;;3.60;;
65387;SDS011;51992;53.528;49.474;2023-06-10T00:11:55;6.88;;;3.47;;
65387;SDS011;51992;53.528;49.474;2023-06-10T00:14:21;6.28;;;3.60;;
65387;SDS011;51992;53.528;49.474;2023-06-10T00:16:46;6.93;;;3.42;;
65387;SDS011;51992;53.528;49.474;2023-06-10T00:19:12;7.25;;;3.20;;
65387;SDS011;51992;53.528;49.474;2023-06-10T00:21:41;7.82;;;3.50;;
65387;SDS011;51992;53.528;49.474;2023-06-10T00:24:07;5.35;;;3.25;;
65387;SDS011;51992;53.528;49.474;2023-06-10T00:26:37;5.40;;;3.55;;
65387;SDS011;51992;53.528;49.474;2023-06-10T00:29:03;6.75;;;3.42;;
65387;SDS011;51992;53.528;49.474;2023-06-10T00:31:28;7.85;;;3.53;;
65387;SDS011;51992;53.528;49.474;2023-06-10T00:33:55;4.68;;;3.65;;
65387;SDS011;51992;53.528;49.474;2023-06-10T00:36:21;7.00;;;3.30;;
65387;SDS011;51992;53.528;49.474;2023-06-10T00:38:47;5.57;;;3.30;;
65387;SDS011;51992;53.528;49.474;2023-06-10T00:41:12;7.18;;;3.80;;
65387;SDS011;51992;53.528;49.474;2023-06-10T00:43:38;8.13;;;3.83;;
65387;SDS011;51992;53.528;49.474;2023-06-10T00:46:04;4.80;;;3.40;;
65387;SDS011;51992;53.528;49.474;2023-06-10T00:48:30;5.63;;;3.35;;
65387;SDS011;51992;53.528;49.474;2023-06-10T00:50:56;4.68;;;3.47;;
65387;SDS011;51992;53.528;49.474;2023-06-10T00:53:22;6.13;;;3.35;;
65387;SDS011;51992;53.528;49.474;2023-06-10T00:55:48;10.48;;;3.65;;
65387;SDS011;51992;53.528;49.474;2023-06-10T00:58:13;4.88;;;3.58;;
65387;SDS011;51992;53.528;49.474;2023-06-10T01:00:41;5.22;;;3.63;;
65387;SDS011;51992;53.528;49.474;2023-06-10T01:03:09;6.13;;;3.95;;
65387;SDS011;51992;53.528;49.474;2023-06-10T01:05:35;6.28;;;3.50;;
65387;SDS011;51992;53.528;49.474;2023-06-10T01:11:04;8.13;;;3.60;;
65387;SDS011;51992;53.528;49.474;2023-06-10T01:13:32;7.60;;;3.67;;
65387;SDS011;51992;53.528;49.474;2023-06-10T01:16:00;5.13;;;3.60;;
65387;SDS011;51992;53.528;49.474;2023-06-10T01:18:32;5.72;;;3.70;;
65387;SDS011;51992;53.528;49.474;2023-06-10T01:20:57;5.05;;;3.42;;
65387;SDS011;51992;53.528;49.474;2023-06-10T01:23:23;7.82;;;4.00;;
65387;SDS011;51992;53.528;49.474;2023-06-10T01:25:50;5.47;;;3.58;;
65387;SDS011;51992;53.528;49.474;2023-06-10T01:28:21;5.70;;;3.85;;
65387;SDS011;51992;53.528;49.474;2023-06-10T01:33:15;7.63;;;4.10;;
65387;SDS011;51992;53.528;49.474;2023-06-10T01:35:42;5.85;;;3.45;;
65387;SDS011;51992;53.528;49.474;2023-06-10T01:38:08;8.27;;;3.70;;
65387;SDS011;51992;53.528;49.474;2023-06-10T01:40:35;7.80;;;3.63;;
65387;SDS011;51992;53.528;49.474;2023-06-10T01:43:01;3.92;;;3.50;;
65387;SDS011;51992;53.528;49.474;2023-06-10T01:45:27;4.28;;;3.45;;
65387;SDS011;51992;53.528;49.474;2023-06-10T01:47:53;6.45;;;3.92;;
65387;SDS011;51992;53.528;49.474;2023-06-10T01:50:18;5.25;;;3.55;;
65387;SDS011;51992;53.528;49.474;2023-06-10T01:52:45;9.95;;;3.80;;
65387;SDS011;51992;53.528;49.474;2023-06-10T01:55:10;6.93;;;3.78;;
65387;SDS011;51992;53.528;49.474;2023-06-10T01:57:36;4.72;;;3.40;;
65387;SDS011;51992;53.528;49.474;2023-06-10T02:00:02;8.52;;;4.40;;
65387;SDS011;51992;53.528;49.474;2023-06-10T02:02:28;9.00;;;5.88;;
65387;SDS011;51992;53.528;49.474;2023-06-10T02:04:54;11.35;;;6.40;;
65387;SDS011;51992;53.528;49.474;2023-06-10T02:07:20;11.25;;;6.75;;
65387;SDS011;51992;53.528;49.474;2023-06-10T02:09:46;10.40;;;5.82;;
65387;SDS011;51992;53.528;49.474;2023-06-10T02:12:12;10.38;;;5.60;;
65387;SDS011;51992;53.528;49.474;2023-06-10T02:14:38;7.50;;;4.07;;
65387;SDS011;51992;53.528;49.474;2023-06-10T02:17:03;11.57;;;4.40;;
65387;SDS011;51992;53.528;49.474;2023-06-10T02:19:30;8.40;;;4.35;;
65387;SDS011;51992;53.528;49.474;2023-06-10T02:21:56;7.10;;;3.70;;
65387;SDS011;51992;53.528;49.474;2023-06-10T02:24:21;15.43;;;4.50;;
65387;SDS011;51992;53.528;49.474;2023-06-10T02:26:47;7.88;;;3.97;;
65387;SDS011;51992;53.528;49.474;2023-06-10T02:29:13;16.33;;;4.93;;
65387;SDS011;51992;53.528;49.474;2023-06-10T02:31:39;7.53;;;4.32;;
65387;SDS011;51992;53.528;49.474;2023-06-10T02:34:05;9.52;;;3.83;;
65387;SDS011;51992;53.528;49.474;2023-06-10T02:36:30;6.57;;;3.60;;
65387;SDS011;51992;53.528;49.474;2023-06-10T02:38:56;7.15;;;3.58;;
65387;SDS011;51992;53.528;49.474;2023-06-10T02:41:22;4.28;;;3.40;;
65387;SDS011;51992;53.528;49.474;2023-06-10T02:43:48;4.47;;;3.00;;
65387;SDS011;51992;53.528;49.474;2023-06-10T02:46:14;6.70;;;3.22;;
65387;SDS011;51992;53.528;49.474;2023-06-10T02:48:40;8.02;;;3.65;;
65387;SDS011;51992;53.528;49.474;2023-06-10T02:51:06;7.82;;;3.22;;
65387;SDS011;51992;53.528;49.474;2023-06-10T02:53:32;6.53;;;3.70;;
65387;SDS011;51992;53.528;49.474;2023-06-10T02:55:58;9.05;;;4.25;;
65387;SDS011;51992;53.528;49.474;2023-06-10T02:58:23;3.95;;;3.17;;
65387;SDS011;51992;53.528;49.474;2023-06-10T03:00:49;8.95;;;3.90;;
65387;SDS011;51992;53.528;49.474;2023-06-10T03:03:15;6.18;;;3.40;;
65387;SDS011;51992;53.528;49.474;2023-06-10T03:05:41;4.35;;;3.38;;
65387;SDS011;51992;53.528;49.474;2023-06-10T03:08:07;4.90;;;3.53;;
65387;SDS011;51992;53.528;49.474;2023-06-10T03:10:33;10.15;;;3.65;;
65387;SDS011;51992;53.528;49.474;2023-06-10T03:12:58;5.22;;;3.65;;
65387;SDS011;51992;53.528;49.474;2023-06-10T03:15:24;7.43;;;3.97;;
65387;SDS011;51992;53.528;49.474;2023-06-10T03:17:50;11.82;;;4.47;;
65387;SDS011;51992;53.528;49.474;2023-06-10T03:20:16;9.07;;;4.20;;
65387;SDS011;51992;53.528;49.474;2023-06-10T03:22:42;10.23;;;4.00;;
65387;SDS011;51992;53.528;49.474;2023-06-10T03:25:08;8.25;;;3.90;;
65387;SDS011;51992;53.528;49.474;2023-06-10T03:27:39;5.63;;;3.35;;
65387;SDS011;51992;53.528;49.474;2023-06-10T03:30:05;8.10;;;3.45;;
65387;SDS011;51992;53.528;49.474;2023-06-10T03:32:31;7.68;;;3.53;;
65387;SDS011;51992;53.528;49.474;2023-06-10T03:34:57;7.18;;;3.38;;
65387;SDS011;51992;53.528;49.474;2023-06-10T03:37:24;6.90;;;3.65;;
65387;SDS011;51992;53.528;49.474;2023-06-10T03:39:49;11.98;;;3.80;;
65387;SDS011;51992;53.528;49.474;2023-06-10T03:42:15;5.72;;;3.38;;
65387;SDS011;51992;53.528;49.474;2023-06-10T03:44:41;4.82;;;3.45;;
65387;SDS011;51992;53.528;49.474;2023-06-10T03:47:07;7.80;;;3.70;;
65387;SDS011;51992;53.528;49.474;2023-06-10T03:49:32;7.72;;;4.00;;
65387;SDS011;51992;53.528;49.474;2023-06-10T03:51:58;7.25;;;3.65;;
65387;SDS011;51992;53.528;49.474;2023-06-10T03:54:24;7.07;;;3.40;;
65387;SDS011;51992;53.528;49.474;2023-06-10T03:56:50;16.95;;;4.63;;
65387;SDS011;51992;53.528;49.474;2023-06-10T03:59:16;25.33;;;7.63;;
65387;SDS011;51992;53.528;49.474;2023-06-10T04:01:42;16.52;;;4.65;;
65387;SDS011;51992;53.528;49.474;2023-06-10T04:04:09;13.35;;;4.63;;
65387;SDS011;51992;53.528;49.474;2023-06-10T04:06:35;6.82;;;3.47;;
65387;SDS011;51992;53.528;49.474;2023-06-10T04:09:02;5.55;;;3.25;;
65387;SDS011;51992;53.528;49.474;2023-06-10T04:11:28;9.25;;;4.28;;
65387;SDS011;51992;53.528;49.474;2023-06-10T04:13:54;4.72;;;3.60;;
65387;SDS011;51992;53.528;49.474;2023-06-10T04:16:20;8.45;;;3.88;;
65387;SDS011;51992;53.528;49.474;2023-06-10T04:18:46;8.45;;;4.38;;
65387;SDS011;51992;53.528;49.474;2023-06-10T04:21:12;4.93;;;3.65;;
65387;SDS011;51992;53.528;49.474;2023-06-10T04:23:38;8.00;;;3.67;;
65387;SDS011;51992;53.528;49.474;2023-06-10T04:26:04;7.30;;;3.70;;
65387;SDS011;51992;53.528;49.474;2023-06-10T04:28:31;9.20;;;4.18;;
65387;SDS011;51992;53.528;49.474;2023-06-10T04:30:56;7.20;;;3.70;;
65387;SDS011;51992;53.528;49.474;2023-06-10T04:33:23;5.70;;;3.78;;
65387;SDS011;51992;53.528;49.474;2023-06-10T04:35:49;8.38;;;3.60;;
65387;SDS011;51992;53.528;49.474;2023-06-10T04:38:15;13.20;;;4.68;;
65387;SDS011;51992;53.528;49.474;2023-06-10T04:40:41;9.50;;;4.68;;
65387;SDS011;51992;53.528;49.474;2023-06-10T04:43:06;8.40;;;4.18;;
65387;SDS011;51992;53.528;49.474;2023-06-10T04:45:32;8.38;;;3.97;;
65387;SDS011;51992;53.528;49.474;2023-06-10T04:47:58;13.30;;;5.18;;
65387;SDS011;51992;53.528;49.474;2023-06-10T04:50:24;6.45;;;3.85;;
65387;SDS011;51992;53.528;49.474;2023-06-10T04:52:50;5.40;;;3.85;;
65387;SDS011;51992;53.528;49.474;2023-06-10T04:55:15;11.55;;;4.55;;
65387;SDS011;51992;53.528;49.474;2023-06-10T04:57:41;55.58;;;9.40;;
65387;SDS011;51992;53.528;49.474;2023-06-10T05:00:07;11.98;;;4.80;;
65387;SDS011;51992;53.528;49.474;2023-06-10T05:02:33;7.13;;;3.55;;
65387;SDS011;51992;53.528;49.474;2023-06-10T05:04:59;6.63;;;3.80;;
65387;SDS011;51992;53.528;49.474;2023-06-10T05:07:25;8.20;;;3.95;;
65387;SDS011;51992;53.528;49.474;2023-06-10T05:09:51;4.95;;;3.78;;
65387;SDS011;51992;53.528;49.474;2023-06-10T05:12:17;7.43;;;3.83;;
65387;SDS011;51992;53.528;49.474;2023-06-10T05:14:43;7.28;;;4.28;;
65387;SDS011;51992;53.528;49.474;2023-06-10T05:17:10;6.93;;;3.97;;
65387;SDS011;51992;53.528;49.474;2023-06-10T05:19:35;5.93;;;3.88;;
65387;SDS011;51992;53.528;49.474;2023-06-10T05:22:02;12.98;;;4.13;;
65387;SDS011;51992;53.528;49.474;2023-06-10T05:24:28;8.85;;;4.32;;
65387;SDS011;51992;53.528;49.474;2023-06-10T05:26:54;6.90;;;3.83;;
65387;SDS011;51992;53.528;49.474;2023-06-10T05:29:19;4.05;;;3.50;;
65387;SDS011;51992;53.528;49.474;2023-06-10T05:31:45;7.88;;;4.03;;
65387;SDS011;51992;53.528;49.474;2023-06-10T05:34:11;6.00;;;3.58;;
65387;SDS011;51992;53.528;49.474;2023-06-10T05:36:37;7.25;;;3.70;;
65387;SDS011;51992;53.528;49.474;2023-06-10T05:39:03;11.88;;;4.05;;
65387;SDS011;51992;53.528;49.474;2023-06-10T05:41:28;8.98;;;3.80;;
65387;SDS011;51992;53.528;49.474;2023-06-10T05:43:54;8.88;;;4.00;;
65387;SDS011;51992;53.528;49.474;2023-06-10T05:46:20;3.95;;;3.55;;
65387;SDS011;51992;53.528;49.474;2023-06-10T05:48:46;5.63;;;3.72;;
65387;SDS011;51992;53.528;49.474;2023-06-10T05:51:11;6.57;;;3.78;;
65387;SDS011;51992;53.528;49.474;2023-06-10T05:53:37;7.13;;;3.35;;
65387;SDS011;51992;53.528;49.474;2023-06-10T05:56:03;8.23;;;3.75;;
65387;SDS011;51992;53.528;49.474;2023-06-10T05:58:29;6.43;;;3.70;;
65387;SDS011;51992;53.528;49.474;2023-06-10T06:00:55;9.63;;;4.00;;
65387;SDS011;51992;53.528;49.474;2023-06-10T06:03:21;10.88;;;3.70;;
65387;SDS011;51992;53.528;49.474;2023-06-10T06:05:46;11.73;;;4.90;;
65387;SDS011;51992;53.528;49.474;2023-06-10T06:08:12;5.30;;;3.75;;
65387;SDS011;51992;53.528;49.474;2023-06-10T06:10:46;8.13;;;3.80;;
65387;SDS011;51992;53.528;49.474;2023-06-10T06:13:15;4.13;;;3.33;;
65387;SDS011;51992;53.528;49.474;2023-06-10T06:15:40;8.35;;;3.55;;
65387;SDS011;51992;53.528;49.474;2023-06-10T06:18:06;9.98;;;3.80;;
65387;SDS011;51992;53.528;49.474;2023-06-10T06:20:32;7.75;;;3.47;;
65387;SDS011;51992;53.528;49.474;2023-06-10T06:22:58;13.05;;;4.22;;
65387;SDS011;51992;53.528;49.474;2023-06-10T06:25:23;10.50;;;3.97;;
65387;SDS011;51992;53.528;49.474;2023-06-10T06:27:49;12.65;;;3.55;;
65387;SDS011;51992;53.528;49.474;2023-06-10T06:30:15;7.10;;;3.47;;
65387;SDS011;51992;53.528;49.474;2023-06-10T06:32:40;4.38;;;3.58;;
65387;SDS011;51992;53.528;49.474;2023-06-10T06:35:06;6.63;;;3.58;;
65387;SDS011;51992;53.528;49.474;2023-06-10T06:37:33;10.10;;;3.55;;
65387;SDS011;51992;53.528;49.474;2023-06-10T06:39:59;9.38;;;3.30;;
65387;SDS011;51992;53.528;49.474;2023-06-10T06:42:25;6.00;;;3.13;;
65387;SDS011;51992;53.528;49.474;2023-06-10T06:44:50;7.70;;;3.40;;
65387;SDS011;51992;53.528;49.474;2023-06-10T06:47:16;5.53;;;3.00;;
65387;SDS011;51992;53.528;49.474;2023-06-10T06:49:48;4.88;;;3.10;;
65387;SDS011;51992;53.528;49.474;2023-06-10T06:52:17;8.23;;;3.40;;
65387;SDS011;51992;53.528;49.474;2023-06-10T06:54:42;10.57;;;3.80;;
65387;SDS011;51992;53.528;49.474;2023-06-10T06:57:08;6.70;;;3.13;;
65387;SDS011;51992;53.528;49.474;2023-06-10T06:59:34;5.15;;;3.00;;
65387;SDS011;51992;53.528;49.474;2023-06-10T07:01:59;5.85;;;3.05;;
65387;SDS011;51992;53.528;49.474;2023-06-10T07:04:25;6.78;;;3.13;;
65387;SDS011;51992;53.528;49.474;2023-06-10T07:06:51;6.07;;;3.10;;
65387;SDS011;51992;53.528;49.474;2023-06-10T07:09:18;8.10;;;3.42;;
65387;SDS011;51992;53.528;49.474;2023-06-10T07:11:43;4.15;;;2.78;;
65387;SDS011;51992;53.528;49.474;2023-06-10T07:14:09;5.38;;;3.00;;
65387;SDS011;51992;53.528;49.474;2023-06-10T07:16:35;6.00;;;3.30;;
65387;SDS011;51992;53.528;49.474;2023-06-10T07:19:01;8.32;;;3.42;;
65387;SDS011;51992;53.528;49.474;2023-06-10T07:21:26;9.55;;;3.45;;
65387;SDS011;51992;53.528;49.474;2023-06-10T07:23:53;4.68;;;3.33;;
65387;SDS011;51992;53.528;49.474;2023-06-10T07:26:21;3.90;;;2.80;;
65387;SDS011;51992;53.528;49.474;2023-06-10T07:28:47;4.38;;;2.90;;
65387;SDS011;51992;53.528;49.474;2023-06-10T07:31:13;10.13;;;3.42;;
65387;SDS011;51992;53.528;49.474;2023-06-10T07:33:39;4.57;;;2.78;;
65387;SDS011;51992;53.528;49.474;2023-06-10T07:36:05;5.35;;;3.00;;
65387;SDS011;51992;53.528;49.474;2023-06-10T07:38:31;5.43;;;3.22;;
65387;SDS011;51992;53.528;49.474;2023-06-10T07:40:57;6.82;;;3.20;;
65387;SDS011;51992;53.528;49.474;2023-06-10T07:43:23;4.85;;;3.28;;
65387;SDS011;51992;53.528;49.474;2023-06-10T07:45:49;4.57;;;3.00;;
65387;SDS011;51992;53.528;49.474;2023-06-10T07:48:15;4.13;;;3.08;;
65387;SDS011;51992;53.528;49.474;2023-06-10T07:50:41;5.60;;;3.15;;
65387;SDS011;51992;53.528;49.474;2023-06-10T07:53:06;6.95;;;3.33;;
65387;SDS011;51992;53.528;49.474;2023-06-10T07:55:32;6.63;;;3.30;;
65387;SDS011;51992;53.528;49.474;2023-06-10T07:57:58;6.65;;;3.30;;
65387;SDS011;51992;53.528;49.474;2023-06-10T08:00:23;5.85;;;3.10;;
65387;SDS011;51992;53.528;49.474;2023-06-10T08:02:49;6.18;;;3.00;;
65387;SDS011;51992;53.528;49.474;2023-06-10T08:05:16;3.58;;;2.83;;
65387;SDS011;51992;53.528;49.474;2023-06-10T08:07:42;3.83;;;3.08;;
65387;SDS011;51992;53.528;49.474;2023-06-10T08:10:08;4.40;;;3.25;;
65387;SDS011;51992;53.528;49.474;2023-06-10T08:12:34;6.72;;;3.15;;
65387;SDS011;51992;53.528;49.474;2023-06-10T08:15:01;4.68;;;3.20;;
65387;SDS011;51992;53.528;49.474;2023-06-10T08:17:26;5.45;;;3.40;;
65387;SDS011;51992;53.528;49.474;2023-06-10T08:19:52;7.32;;;3.60;;
65387;SDS011;51992;53.528;49.474;2023-06-10T08:22:18;4.57;;;3.22;;
65387;SDS011;51992;53.528;49.474;2023-06-10T08:24:44;5.47;;;3.40;;
65387;SDS011;51992;53.528;49.474;2023-06-10T08:27:09;4.80;;;3.10;;
65387;SDS011;51992;53.528;49.474;2023-06-10T08:29:35;4.05;;;3.25;;
65387;SDS011;51992;53.528;49.474;2023-06-10T08:32:01;5.43;;;3.50;;
65387;SDS011;51992;53.528;49.474;2023-06-10T08:34:27;6.95;;;3.30;;
65387;SDS011;51992;53.528;49.474;2023-06-10T08:36:53;7.75;;;3.90;;
65387;SDS011;51992;53.528;49.474;2023-06-10T08:39:23;5.60;;;3.25;;
65387;SDS011;51992;53.528;49.474;2023-06-10T08:42:04;6.95;;;3.33;;
65387;SDS011;51992;53.528;49.474;2023-06-10T08:44:35;11.02;;;4.80;;
65387;SDS011;51992;53.528;49.474;2023-06-10T08:47:04;7.25;;;3.40;;
65387;SDS011;51992;53.528;49.474;2023-06-10T08:49:34;6.77;;;3.47;;
65387;SDS011;51992;53.528;49.474;2023-06-10T08:52:04;6.25;;;3.50;;
65387;SDS011;51992;53.528;49.474;2023-06-10T08:54:32;6.90;;;4.03;;
65387;SDS011;51992;53.528;49.474;2023-06-10T08:57:00;7.53;;;3.35;;
65387;SDS011;51992;53.528;49.474;2023-06-10T08:59:28;6.45;;;3.40;;
65387;SDS011;51992;53.528;49.474;2023-06-10T09:01:54;3.95;;;3.53;;
65387;SDS011;51992;53.528;49.474;2023-06-10T09:04:20;8.95;;;3.70;;
65387;SDS011;51992;53.528;49.474;2023-06-10T09:06:46;7.53;;;3.72;;
65387;SDS011;51992;53.528;49.474;2023-06-10T09:09:12;5.45;;;3.05;;
65387;SDS011;51992;53.528;49.474;2023-06-10T09:11:39;5.05;;;3.05;;
65387;SDS011;51992;53.528;49.474;2023-06-10T09:14:05;7.20;;;3.28;;
65387;SDS011;51992;53.528;49.474;2023-06-10T09:16:30;5.07;;;3.47;;
65387;SDS011;51992;53.528;49.474;2023-06-10T09:18:56;5.70;;;3.03;;
65387;SDS011;51992;53.528;49.474;2023-06-10T09:21:22;5.70;;;3.58;;
65387;SDS011;51992;53.528;49.474;2023-06-10T09:23:48;6.75;;;4.00;;
65387;SDS011;51992;53.528;49.474;2023-06-10T09:26:14;7.88;;;3.47;;
65387;SDS011;51992;53.528;49.474;2023-06-10T09:28:41;4.20;;;3.28;;
65387;SDS011;51992;53.528;49.474;2023-06-10T09:31:07;9.95;;;3.30;;
65387;SDS011;51992;53.528;49.474;2023-06-10T09:33:37;6.03;;;3.45;;
65387;SDS011;51992;53.528;49.474;2023-06-10T09:36:04;3.65;;;3.13;;
65387;SDS011;51992;53.528;49.474;2023-06-10T09:38:30;4.75;;;3.20;;
65387;SDS011;51992;53.528;49.474;2023-06-10T09:40:57;9.25;;;4.15;;
65387;SDS011;51992;53.528;49.474;2023-06-10T09:43:23;14.85;;;4.78;;
65387;SDS011;51992;53.528;49.474;2023-06-10T09:45:49;7.95;;;4.30;;
65387;SDS011;51992;53.528;49.474;2023-06-10T09:48:15;11.38;;;4.50;;
65387;SDS011;51992;53.528;49.474;2023-06-10T09:50:44;6.38;;;4.20;;
65387;SDS011;51992;53.528;49.474;2023-06-10T09:53:10;13.20;;;6.38;;
65387;SDS011;51992;53.528;49.474;2023-06-10T09:55:40;26.45;;;7.03;;
65387;SDS011;51992;53.528;49.474;2023-06-10T09:58:06;11.52;;;4.32;;
65387;SDS011;51992;53.528;49.474;2023-06-10T10:00:33;15.73;;;6.47;;
65387;SDS011;51992;53.528;49.474;2023-06-10T10:02:58;19.73;;;5.88;;
65387;SDS011;51992;53.528;49.474;2023-06-10T10:05:24;10.85;;;5.70;;
65387;SDS011;51992;53.528;49.474;2023-06-10T10:07:50;8.32;;;5.45;;
65387;SDS011;51992;53.528;49.474;2023-06-10T10:10:18;9.68;;;5.78;;
65387;SDS011;51992;53.528;49.474;2023-06-10T10:12:44;21.25;;;12.52;;
65387;SDS011;51992;53.528;49.474;2023-06-10T10:15:11;24.45;;;13.20;;
65387;SDS011;51992;53.528;49.474;2023-06-10T10:17:37;18.10;;;8.43;;
65387;SDS011;51992;53.528;49.474;2023-06-10T10:20:05;12.50;;;6.78;;
65387;SDS011;51992;53.528;49.474;2023-06-10T10:22:39;23.98;;;11.88;;
65387;SDS011;51992;53.528;49.474;2023-06-10T10:25:11;25.83;;;11.27;;
65387;SDS011;51992;53.528;49.474;2023-06-10T10:27:43;34.83;;;10.25;;
65387;SDS011;51992;53.528;49.474;2023-06-10T10:30:09;15.77;;;10.13;;
65387;SDS011;51992;53.528;49.474;2023-06-10T10:35:21;19.27;;;7.80;;
65387;SDS011;51992;53.528;49.474;2023-06-10T10:37:49;10.38;;;6.50;;
65387;SDS011;51992;53.528;49.474;2023-06-10T10:40:15;16.73;;;7.50;;
65387;SDS011;51992;53.528;49.474;2023-06-10T10:42:42;18.55;;;9.10;;
65387;SDS011;51992;53.528;49.474;2023-06-10T10:45:08;23.95;;;9.85;;
65387;SDS011;51992;53.528;49.474;2023-06-10T10:47:34;13.90;;;6.25;;
65387;SDS011;51992;53.528;49.474;2023-06-10T10:50:03;18.15;;;6.50;;
65387;SDS011;51992;53.528;49.474;2023-06-10T10:53:11;16.80;;;6.50;;
65387;SDS011;51992;53.528;49.474;2023-06-10T10:55:30;12.07;;;5.65;;
65387;SDS011;51992;53.528;49.474;2023-06-10T10:58:02;32.83;;;10.95;;
65387;SDS011;51992;53.528;49.474;2023-06-10T11:00:32;19.02;;;7.70;;
65387;SDS011;51992;53.528;49.474;2023-06-10T11:02:58;20.30;;;8.95;;
65387;SDS011;51992;53.528;49.474;2023-06-10T11:05:58;20.58;;;9.38;;
65387;SDS011;51992;53.528;49.474;2023-06-10T11:10:58;15.68;;;9.70;;
65387;SDS011;51992;53.528;49.474;2023-06-10T11:13:25;10.35;;;6.90;;
65387;SDS011;51992;53.528;49.474;2023-06-10T11:15:50;10.57;;;6.35;;
65387;SDS011;51992;53.528;49.474;2023-06-10T11:18:26;21.85;;;8.50;;
65387;SDS011;51992;53.528;49.474;2023-06-10T11:20:56;13.80;;;8.52;;
65387;SDS011;51992;53.528;49.474;2023-06-10T11:28:40;18.33;;;9.88;;
65387;SDS011;51992;53.528;49.474;2023-06-10T11:31:06;14.30;;;8.02;;
65387;SDS011;51992;53.528;49.474;2023-06-10T11:33:31;9.52;;;5.97;;
65387;SDS011;51992;53.528;49.474;2023-06-10T11:35:57;11.93;;;6.13;;
65387;SDS011;51992;53.528;49.474;2023-06-10T11:38:24;10.30;;;5.50;;
65387;SDS011;51992;53.528;49.474;2023-06-10T11:40:50;13.25;;;7.05;;
65387;SDS011;51992;53.528;49.474;2023-06-10T11:43:19;11.57;;;6.20;;
65387;SDS011;51992;53.528;49.474;2023-06-10T11:45:45;7.95;;;5.32;;
65387;SDS011;51992;53.528;49.474;2023-06-10T11:48:11;13.02;;;7.50;;
65387;SDS011;51992;53.528;49.474;2023-06-10T11:50:37;19.15;;;10.68;;
65387;SDS011;51992;53.528;49.474;2023-06-10T11:53:03;13.55;;;7.95;;
65387;SDS011;51992;53.528;49.474;2023-06-10T11:55:42;13.75;;;6.60;;
65387;SDS011;51992;53.528;49.474;2023-06-10T11:58:12;9.82;;;6.60;;
65387;SDS011;51992;53.528;49.474;2023-06-10T12:00:43;7.63;;;5.20;;
65387;SDS011;51992;53.528;49.474;2023-06-10T12:03:09;6.80;;;4.78;;
65387;SDS011;51992;53.528;49.474;2023-06-10T12:05:35;11.95;;;5.88;;
65387;SDS011;51992;53.528;49.474;2023-06-10T12:08:08;9.93;;;5.28;;
65387;SDS011;51992;53.528;49.474;2023-06-10T12:10:38;9.63;;;6.07;;
65387;SDS011;51992;53.528;49.474;2023-06-10T12:13:04;12.57;;;8.40;;
65387;SDS011;51992;53.528;49.474;2023-06-10T12:15:30;12.82;;;6.47;;
65387;SDS011;51992;53.528;49.474;2023-06-10T12:17:55;7.05;;;4.80;;
65387;SDS011;51992;53.528;49.474;2023-06-10T12:20:25;24.17;;;9.07;;
65387;SDS011;51992;53.528;49.474;2023-06-10T12:22:51;15.90;;;8.10;;
65387;SDS011;51992;53.528;49.474;2023-06-10T12:25:17;8.70;;;6.55;;
65387;SDS011;51992;53.528;49.474;2023-06-10T12:27:50;12.57;;;7.15;;
65387;SDS011;51992;53.528;49.474;2023-06-10T12:30:20;10.15;;;5.95;;
65387;SDS011;51992;53.528;49.474;2023-06-10T12:32:46;9.38;;;6.07;;
65387;SDS011;51992;53.528;49.474;2023-06-10T12:35:22;7.80;;;5.80;;
65387;SDS011;51992;53.528;49.474;2023-06-10T12:37:57;10.77;;;6.40;;
65387;SDS011;51992;53.528;49.474;2023-06-10T12:40:27;9.20;;;6.32;;
65387;SDS011;51992;53.528;49.474;2023-06-10T12:42:54;7.25;;;5.65;;
65387;SDS011;51992;53.528;49.474;2023-06-10T12:45:26;7.63;;;6.07;;
65387;SDS011;51992;53.528;49.474;2023-06-10T12:48:04;7.28;;;5.00;;
65387;SDS011;51992;53.528;49.474;2023-06-10T12:50:31;9.15;;;5.22;;
65387;SDS011;51992;53.528;49.474;2023-06-10T12:52:57;7.32;;;4.85;;
65387;SDS011;51992;53.528;49.474;2023-06-10T12:55:22;5.95;;;4.93;;
65387;SDS011;51992;53.528;49.474;2023-06-10T12:57:49;9.27;;;5.63;;
65387;SDS011;51992;53.528;49.474;2023-06-10T13:00:15;8.80;;;5.70;;
65387;SDS011;51992;53.528;49.474;2023-06-10T13:02:41;26.30;;;6.18;;
65387;SDS011;51992;53.528;49.474;2023-06-10T13:05:06;10.10;;;7.18;;
65387;SDS011;51992;53.528;49.474;2023-06-10T13:07:33;8.73;;;6.00;;
65387;SDS011;51992;53.528;49.474;2023-06-10T13:09:59;57.20;;;34.65;;
65387;SDS011;51992;53.528;49.474;2023-06-10T13:12:25;59.15;;;34.55;;
65387;SDS011;51992;53.528;49.474;2023-06-10T13:14:51;18.25;;;11.73;;
65387;SDS011;51992;53.528;49.474;2023-06-10T13:17:19;20.23;;;11.00;;
65387;SDS011;51992;53.528;49.474;2023-06-10T13:19:45;23.38;;;13.05;;
65387;SDS011;51992;53.528;49.474;2023-06-10T13:22:11;17.40;;;8.73;;
65387;SDS011;51992;53.528;49.474;2023-06-10T13:24:40;8.35;;;4.90;;
65387;SDS011;51992;53.528;49.474;2023-06-10T13:27:06;6.93;;;5.00;;
65387;SDS011;51992;53.528;49.474;2023-06-10T13:29:32;7.85;;;4.72;;
65387;SDS011;51992;53.528;49.474;2023-06-10T13:31:58;5.32;;;4.30;;
65387;SDS011;51992;53.528;49.474;2023-06-10T13:34:23;9.18;;;4.32;;
65387;SDS011;51992;53.528;49.474;2023-06-10T13:36:49;4.50;;;3.88;;
65387;SDS011;51992;53.528;49.474;2023-06-10T13:39:15;6.22;;;4.00;;
65387;SDS011;51992;53.528;49.474;2023-06-10T13:41:41;20.08;;;12.25;;
65387;SDS011;51992;53.528;49.474;2023-06-10T13:44:07;15.27;;;9.95;;
65387;SDS011;51992;53.528;49.474;2023-06-10T13:46:33;21.48;;;14.40;;
65387;SDS011;51992;53.528;49.474;2023-06-10T13:48:58;26.92;;;15.30;;
65387;SDS011;51992;53.528;49.474;2023-06-10T13:51:24;19.10;;;9.88;;
65387;SDS011;51992;53.528;49.474;2023-06-10T13:53:50;10.20;;;5.55;;
65387;SDS011;51992;53.528;49.474;2023-06-10T13:56:17;7.53;;;5.55;;
65387;SDS011;51992;53.528;49.474;2023-06-10T13:58:43;27.52;;;12.63;;
65387;SDS011;51992;53.528;49.474;2023-06-10T14:01:09;19.48;;;10.77;;
65387;SDS011;51992;53.528;49.474;2023-06-10T14:03:35;24.05;;;11.00;;
65387;SDS011;51992;53.528;49.474;2023-06-10T14:06:01;15.65;;;8.50;;
65387;SDS011;51992;53.528;49.474;2023-06-10T14:08:28;11.77;;;7.53;;
65387;SDS011;51992;53.528;49.474;2023-06-10T14:10:53;13.15;;;7.60;;
65387;SDS011;51992;53.528;49.474;2023-06-10T14:13:19;17.92;;;9.95;;
65387;SDS011;51992;53.528;49.474;2023-06-10T14:15:45;30.98;;;15.10;;
65387;SDS011;51992;53.528;49.474;2023-06-10T14:18:12;31.73;;;21.40;;
65387;SDS011;51992;53.528;49.474;2023-06-10T14:20:37;34.22;;;23.10;;
65387;SDS011;51992;53.528;49.474;2023-06-10T14:23:03;34.22;;;21.00;;
65387;SDS011;51992;53.528;49.474;2023-06-10T14:25:29;24.15;;;14.82;;
65387;SDS011;51992;53.528;49.474;2023-06-10T14:27:54;23.77;;;14.65;;
65387;SDS011;51992;53.528;49.474;2023-06-10T14:30:20;31.83;;;20.92;;
65387;SDS011;51992;53.528;49.474;2023-06-10T14:32:46;27.65;;;18.75;;
65387;SDS011;51992;53.528;49.474;2023-06-10T14:35:12;21.90;;;13.57;;
65387;SDS011;51992;53.528;49.474;2023-06-10T14:37:37;16.42;;;10.50;;
65387;SDS011;51992;53.528;49.474;2023-06-10T14:40:03;14.15;;;7.32;;
65387;SDS011;51992;53.528;49.474;2023-06-10T14:42:30;9.18;;;6.03;;